Time;durP1;ratioP1;P1;durP2;ratioP2;P2;SDS_P1;SDS_P2;PMS_P1;PMS_P2;Temp;Humidity;BMP_temperature;BMP_pressure;BME280_temperature;BME280_humidity;BME280_pressure;Samples;Min_cycle;Max_cycle;Signal;HPM_P1;HPM_P2
2022/04/02 00:00:26;;;;;;;0.70;0.70;;;;;;;1.47;78.27;100701.41;5177143;28;20122;-78
2022/04/02 00:02:56;;;;;;;0.60;0.60;;;;;;;1.34;79.82;100713.34;5168451;28;20111;-79
2022/04/02 00:05:27;;;;;;;0.57;0.57;;;;;;;1.50;78.63;100714.38;5172911;28;20038;-79
2022/04/02 00:07:58;;;;;;;0.82;0.82;;;;;;;1.52;78.54;100710.09;5172461;28;20031;-79
2022/04/02 00:10:28;;;;;;;1.17;1.17;;;;;;;1.52;78.69;100710.09;5156105;28;20446;-81
2022/04/02 00:12:59;;;;;;;0.93;0.82;;;;;;;1.53;77.74;100708.34;5169087;28;20050;-78
2022/04/02 00:15:29;;;;;;;0.55;0.55;;;;;;;1.58;77.49;100714.44;5177224;28;20034;-78
2022/04/02 00:18:00;;;;;;;1.90;1.65;;;;;;;1.69;77.48;100706.81;5159815;28;20077;-79
2022/04/02 00:20:30;;;;;;;1.23;1.20;;;;;;;1.47;78.70;100713.47;5175577;28;20044;-78
2022/04/02 00:25:50;;;;;;;4.03;1.75;;;;;;;1.50;78.94;100716.97;5164877;28;20605;-77
2022/04/02 00:28:20;;;;;;;0.60;0.60;;;;;;;1.62;77.60;100715.31;5197390;28;20029;-81
2022/04/02 00:30:51;;;;;;;0.85;0.85;;;;;;;1.57;78.45;100716.16;5175704;28;20038;-77
2022/04/02 00:33:22;;;;;;;0.60;0.60;;;;;;;1.53;79.01;100710.94;5196984;28;20661;-77
2022/04/02 00:35:53;;;;;;;0.57;0.57;;;;;;;1.60;78.04;100722.22;5155231;28;20046;-76
2022/04/02 00:38:23;;;;;;;0.70;0.70;;;;;;;1.71;77.20;100720.59;5175290;28;20026;-82
2022/04/02 00:40:54;;;;;;;0.30;0.30;;;;;;;1.48;78.66;100723.81;5152581;28;20096;-77
2022/04/02 00:43:33;;;;;;;0.40;0.40;;;;;;;1.51;78.29;100717.81;5180863;28;20033;-81
2022/04/02 00:46:09;;;;;;;0.65;0.65;;;;;;;1.45;78.18;100716.03;5153982;28;20053;-80
2022/04/02 00:48:40;;;;;;;0.30;0.30;;;;;;;1.51;78.83;100718.69;5176153;28;20042;-80
2022/04/02 00:51:13;;;;;;;1.48;1.38;;;;;;;1.55;77.78;100720.44;5153833;28;20042;-77
2022/04/02 00:53:46;;;;;;;0.47;0.47;;;;;;;1.63;77.24;100712.78;5176954;28;20120;-81
2022/04/02 00:56:20;;;;;;;2.25;2.10;;;;;;;1.61;77.07;100718.78;5174994;28;20030;-81
2022/04/02 00:58:51;;;;;;;0.30;0.30;;;;;;;1.51;78.55;100718.69;5188996;28;20033;-78
2022/04/02 01:01:21;;;;;;;0.43;0.43;;;;;;;1.51;77.97;100718.69;5192153;28;20409;-80
2022/04/02 01:03:52;;;;;;;0.57;0.57;;;;;;;1.64;77.39;100721.38;5178247;28;20084;-82
2022/04/02 01:06:23;;;;;;;3.83;0.85;;;;;;;1.64;77.96;100716.22;5175984;28;20042;-77
2022/04/02 01:08:54;;;;;;;0.30;0.30;;;;;;;1.59;77.80;100716.16;5178466;28;20479;-78
2022/04/02 01:11:37;;;;;;;0.65;0.65;;;;;;;1.65;77.43;100720.53;5192319;28;20121;-81
2022/04/02 01:14:08;;;;;;;0.40;0.40;;;;;;;1.69;76.89;100719.72;5173095;28;20104;-76
2022/04/02 01:16:39;;;;;;;0.30;0.30;;;;;;;1.66;76.92;100717.09;5194666;28;20048;-79
2022/04/02 01:19:09;;;;;;;0.63;0.63;;;;;;;1.63;77.92;100715.38;5170722;28;20042;-76
2022/04/02 01:21:47;;;;;;;0.93;0.90;;;;;;;1.62;77.36;100715.31;5172163;28;20051;-78
2022/04/02 01:24:17;;;;;;;0.30;0.30;;;;;;;1.68;76.73;100720.59;5175615;28;20038;-76
2022/04/02 01:26:48;;;;;;;0.50;0.50;;;;;;;1.74;76.66;100720.63;5171996;28;20387;-80
2022/04/02 01:29:19;;;;;;;0.38;0.38;;;;;;;1.65;76.99;100716.25;5175431;28;20038;-82
2022/04/02 01:31:49;;;;;;;0.40;0.40;;;;;;;1.68;76.48;100710.22;5175992;28;20025;-77
2022/04/02 01:34:20;;;;;;;0.40;0.40;;;;;;;1.68;75.94;100715.41;5175242;28;20042;-78
2022/04/02 01:36:51;;;;;;;0.35;0.35;;;;;;;1.65;75.90;100720.53;5161476;28;20045;-81
2022/04/02 01:39:21;;;;;;;0.38;0.38;;;;;;;1.57;77.09;100723.91;5153224;28;20612;-78
2022/04/02 01:41:51;;;;;;;0.30;0.30;;;;;;;1.60;76.65;100722.22;5177271;28;20041;-78
2022/04/02 01:44:22;;;;;;;0.30;0.30;;;;;;;1.56;77.27;100727.34;5175102;28;20211;-77
2022/04/02 01:46:52;;;;;;;0.38;0.38;;;;;;;1.62;76.48;100723.09;5179930;28;20121;-80
2022/04/02 01:49:23;;;;;;;0.30;0.30;;;;;;;1.46;77.19;100730.69;5180725;28;20398;-79
2022/04/02 01:51:54;;;;;;;0.40;0.40;;;;;;;1.44;76.95;100729.84;5173053;28;20718;-80
2022/04/02 01:54:24;;;;;;;0.35;0.35;;;;;;;1.47;77.53;100727.25;5170351;28;20505;-76
2022/04/02 01:56:54;;;;;;;0.30;0.30;;;;;;;1.55;76.86;100727.34;5171877;28;20545;-79
2022/04/02 01:59:25;;;;;;;0.40;0.40;;;;;;;1.61;76.42;100730.00;5170087;28;20112;-78
2022/04/02 02:01:56;;;;;;;0.38;0.38;;;;;;;1.44;77.49;100728.94;5184783;28;20068;-81
2022/04/02 02:04:27;;;;;;;0.52;0.52;;;;;;;1.51;76.74;100736.81;5175300;28;20038;-80
2022/04/02 02:06:58;;;;;;;0.30;0.30;;;;;;;1.43;77.99;100730.69;5171786;28;20497;-79
2022/04/02 02:09:28;;;;;;;0.50;0.50;;;;;;;1.52;76.82;100740.25;5172076;28;20084;-79
2022/04/02 02:12:00;;;;;;;0.68;0.68;;;;;;;1.36;78.03;100739.22;5169577;28;20045;-79
2022/04/02 02:14:31;;;;;;;0.55;0.55;;;;;;;1.52;76.61;100740.25;5171705;28;20044;-80
2022/04/02 02:17:02;;;;;;;0.40;0.40;;;;;;;1.34;76.61;100735.75;5166183;28;20037;-81
2022/04/02 02:19:32;;;;;;;0.45;0.45;;;;;;;1.50;75.70;100740.22;5155844;28;20030;-79
2022/04/02 02:22:04;;;;;;;0.50;0.50;;;;;;;1.44;76.01;100735.00;5176016;28;20026;-82
2022/04/02 02:24:35;;;;;;;0.30;0.30;;;;;;;1.49;75.35;100730.75;5173149;28;20394;-79
2022/04/02 02:27:08;;;;;;;1.98;1.75;;;;;;;1.51;74.99;100743.66;5174719;28;20044;-80
2022/04/02 02:29:41;;;;;;;0.30;0.30;;;;;;;1.47;74.61;100740.19;5156886;28;20293;-80
2022/04/02 02:32:12;;;;;;;0.30;0.30;;;;;;;1.43;74.73;100730.69;5173863;28;20124;-84
2022/04/02 02:37:32;;;;;;;0.30;0.30;;;;;;;1.64;74.45;100730.03;5161233;28;20249;-84
2022/04/02 02:40:04;;;;;;;0.40;0.40;;;;;;;1.42;74.61;100728.94;5173551;28;20505;-81
2022/04/02 02:42:34;;;;;;;0.50;0.50;;;;;;;1.42;74.65;100734.13;5168612;28;20038;-82
2022/04/02 02:45:05;;;;;;;1.38;1.38;;;;;;;1.51;74.87;100736.81;5178227;28;20057;-83
2022/04/02 02:47:36;;;;;;;0.68;0.68;;;;;;;1.57;74.80;100744.63;5176697;28;20045;-80
2022/04/02 02:50:09;;;;;;;0.30;0.30;;;;;;;1.54;74.86;100744.56;5170333;28;20453;-78
2022/04/02 02:52:40;;;;;;;0.40;0.40;;;;;;;1.53;74.60;100748.00;5174088;28;20066;-79
2022/04/02 02:55:10;;;;;;;0.30;0.30;;;;;;;1.60;74.83;100746.34;5169097;28;20153;-80
2022/04/02 02:57:43;;;;;;;0.38;0.38;;;;;;;1.69;73.72;100743.00;5178513;28;20492;-81
2022/04/02 03:00:16;;;;;;;0.55;0.55;;;;;;;1.70;74.05;100739.53;5178410;28;20038;-79
2022/04/02 03:02:47;;;;;;;0.73;0.73;;;;;;;1.48;74.65;100748.84;5155853;28;20038;-80
2022/04/02 03:05:17;;;;;;;0.32;0.32;;;;;;;1.67;73.77;100753.31;5173983;28;20038;-79
2022/04/02 03:07:49;;;;;;;0.40;0.40;;;;;;;1.47;74.26;100753.13;5174171;28;20417;-79
2022/04/02 03:10:22;;;;;;;0.40;0.40;;;;;;;1.57;74.02;100749.78;5173741;28;20106;-80
2022/04/02 03:12:59;;;;;;;0.65;0.63;;;;;;;1.59;73.70;100752.38;5169708;28;20046;-85
2022/04/02 03:15:29;;;;;;;0.30;0.30;;;;;;;1.61;74.19;100757.59;5173941;28;20513;-78
2022/04/02 03:18:06;;;;;;;0.30;0.30;;;;;;;1.57;74.13;100748.94;5166357;28;20045;-78
2022/04/02 03:20:37;;;;;;;0.45;0.45;;;;;;;1.44;73.96;100753.09;5172941;28;20601;-80
2022/04/02 03:23:09;;;;;;;0.47;0.47;;;;;;;1.52;73.69;100756.66;5173908;28;20331;-81
2022/04/02 03:25:39;;;;;;;1.45;0.70;;;;;;;1.49;74.41;100750.56;5166243;28;20038;-80
2022/04/02 03:28:10;;;;;;;1.98;1.77;;;;;;;1.62;73.72;100754.13;5194881;28;20529;-78
2022/04/02 03:30:40;;;;;;;0.30;0.30;;;;;;;1.58;73.63;100758.41;5158037;28;20052;-77
2022/04/02 03:33:10;;;;;;;0.30;0.30;;;;;;;1.67;73.18;100760.22;5164195;28;20071;-79
2022/04/02 03:35:43;;;;;;;0.40;0.40;;;;;;;1.65;73.37;100762.81;5179381;28;20573;-77
2022/04/02 03:38:16;;;;;;;0.40;0.40;;;;;;;1.54;73.17;100759.22;5181184;28;20045;-77
2022/04/02 03:40:47;;;;;;;;;;;;;;;1.50;73.04;100758.34;5169336;28;20045;-77
2022/04/02 03:43:21;;;;;;;0.30;0.30;;;;;;;1.54;72.95;100765.25;5172833;28;19912;-78
2022/04/02 03:45:51;;;;;;;0.98;0.98;;;;;;;1.43;73.20;100764.28;5175117;28;20088;-77
2022/04/02 03:48:21;;;;;;;0.45;0.45;;;;;;;1.53;72.82;100770.44;5178427;28;20521;-77
2022/04/02 03:50:52;;;;;;;0.30;0.30;;;;;;;1.55;72.97;100767.00;5155947;28;20814;-78
2022/04/02 03:53:22;;;;;;;0.50;0.50;;;;;;;1.55;72.70;100767.00;5184744;28;20065;-80
2022/04/02 03:55:53;;;;;;;0.20;0.20;;;;;;;1.36;71.60;100768.53;5182007;28;20026;-79
2022/04/02 03:58:24;;;;;;;0.85;0.85;;;;;;;1.40;72.00;100766.84;5194677;28;20055;-78
2022/04/02 04:00:54;;;;;;;0.30;0.30;;;;;;;1.42;70.55;100770.31;5174904;28;20595;-79
2022/04/02 04:03:25;;;;;;;0.50;0.50;;;;;;;1.45;70.88;100765.16;5144532;28;20125;-82
2022/04/02 04:05:55;;;;;;;0.32;0.32;;;;;;;1.47;70.12;100773.81;5168020;28;20038;-82
2022/04/02 04:08:26;;;;;;;0.52;0.52;;;;;;;1.23;70.84;100770.09;5199242;28;20034;-77
2022/04/02 04:10:56;;;;;;;0.30;0.30;;;;;;;1.47;70.70;100772.94;5137178;28;20110;-76
2022/04/02 04:13:27;;;;;;;0.30;0.30;;;;;;;1.38;69.76;100773.69;5189208;28;20214;-77
2022/04/02 04:15:57;;;;;;;0.50;0.50;;;;;;;1.52;69.75;100786.78;5175822;28;20041;-82
2022/04/02 04:18:28;;;;;;;0.30;0.30;;;;;;;1.67;68.88;100783.50;5178005;28;20124;-79
2022/04/02 04:20:58;;;;;;;0.43;0.43;;;;;;;1.29;68.76;100786.50;5174110;28;20281;-79
2022/04/02 04:23:28;;;;;;;0.30;0.30;;;;;;;1.45;69.41;100783.25;5176879;28;20398;-77
2022/04/02 04:25:59;;;;;;;0.50;0.50;;;;;;;1.39;69.04;100790.94;5168364;28;20034;-79
2022/04/02 04:28:29;;;;;;;0.30;0.30;;;;;;;1.51;69.43;100788.53;5185287;28;20033;-81
2022/04/02 04:31:01;;;;;;;1.00;1.00;;;;;;;1.35;69.60;100792.63;5161064;28;20509;-77
2022/04/02 04:33:32;;;;;;;0.40;0.40;;;;;;;1.31;68.43;100795.16;5181270;28;20091;-77
2022/04/02 04:36:02;;;;;;;0.73;0.73;;;;;;;1.38;69.02;100796.97;5172599;28;20061;-79
2022/04/02 04:38:33;;;;;;;0.22;0.22;;;;;;;1.37;68.82;100802.97;5178325;28;20485;-78
2022/04/02 04:41:04;;;;;;;0.40;0.40;;;;;;;1.42;68.79;100809.94;5184791;28;20053;-77
2022/04/02 04:43:35;;;;;;;0.75;0.75;;;;;;;1.24;68.99;100807.16;5174785;28;20037;-80
2022/04/02 04:46:08;;;;;;;0.82;0.82;;;;;;;1.31;68.03;100813.25;5187906;28;20524;-79
2022/04/02 04:48:42;;;;;;;0.30;0.30;;;;;;;1.14;68.69;100808.75;5175953;28;20038;-79
2022/04/02 04:51:12;;;;;;;;;;;;;;;1.34;68.05;100821.06;5173704;28;20039;-80
2022/04/02 04:53:43;;;;;;;0.30;0.30;;;;;;;1.19;68.62;100820.03;5174644;28;19936;-79
2022/04/02 04:56:13;;;;;;;0.63;0.63;;;;;;;1.32;68.74;100828.81;5170718;28;20275;-77
2022/04/02 04:58:44;;;;;;;0.30;0.30;;;;;;;1.40;67.33;100834.06;5156822;28;20041;-79
2022/04/02 05:01:15;;;;;;;0.30;0.30;;;;;;;1.29;68.28;100830.47;5188510;28;20041;-79
2022/04/02 05:03:45;;;;;;;0.30;0.30;;;;;;;1.45;67.74;100837.56;5198386;28;20543;-77
2022/04/02 05:06:16;;;;;;;0.63;0.63;;;;;;;1.32;67.14;100833.09;5175136;28;20042;-77
2022/04/02 05:08:47;;;;;;;0.40;0.40;;;;;;;1.33;67.97;100832.25;5196914;28;20096;-78
2022/04/02 05:11:17;;;;;;;0.30;0.30;;;;;;;1.25;66.65;100839.88;5171250;28;20488;-77
2022/04/02 05:13:49;;;;;;;0.50;0.50;;;;;;;1.22;67.83;100845.91;5159811;28;20528;-78
2022/04/02 05:16:19;;;;;;;0.30;0.30;;;;;;;1.17;67.29;100842.41;5139606;28;20686;-78
2022/04/02 05:18:50;;;;;;;0.25;0.25;;;;;;;1.27;67.36;100842.53;5179554;28;20049;-78
2022/04/02 05:21:21;;;;;;;0.30;0.30;;;;;;;1.38;67.03;100851.25;5172957;28;20144;-77
2022/04/02 05:23:51;;;;;;;0.30;0.30;;;;;;;1.29;67.43;100851.13;5144178;28;20038;-77
2022/04/02 05:26:22;;;;;;;0.20;0.20;;;;;;;1.39;67.37;100855.59;5172829;28;20038;-77
2022/04/02 05:28:54;;;;;;;0.30;0.30;;;;;;;1.25;67.35;100858.88;5176343;28;20088;-77
2022/04/02 05:31:25;;;;;;;0.38;0.38;;;;;;;1.25;68.22;100860.56;5171018;28;20038;-76
2022/04/02 05:33:55;;;;;;;0.45;0.45;;;;;;;1.30;67.51;100858.94;5172405;28;20356;-77
2022/04/02 05:36:26;;;;;;;0.30;0.30;;;;;;;1.15;67.60;100863.91;5176253;28;20042;-77
2022/04/02 05:38:56;;;;;;;0.40;0.40;;;;;;;1.22;67.20;100866.56;5151880;28;20124;-76
2022/04/02 05:41:29;;;;;;;0.68;0.68;;;;;;;1.17;67.71;100868.25;5152045;28;20057;-76
2022/04/02 05:43:59;;;;;;;0.40;0.40;;;;;;;1.17;66.82;100870.81;5189072;28;20022;-77
2022/04/02 05:46:30;;;;;;;0.50;0.50;;;;;;;1.25;67.76;100876.97;5153896;28;20045;-77
2022/04/02 05:49:00;;;;;;;0.30;0.30;;;;;;;1.22;67.32;100887.25;5170888;28;20030;-76
2022/04/02 05:51:31;;;;;;;0.40;0.40;;;;;;;1.22;67.08;100892.44;5156664;28;20029;-77
2022/04/02 05:54:05;;;;;;;;;;;;;;;1.16;67.60;100887.19;5172735;28;20566;-76
2022/04/02 05:56:36;;;;;;;0.45;0.45;;;;;;;1.08;67.42;100896.53;5171719;28;19925;-76
2022/04/02 05:59:07;;;;;;;0.30;0.30;;;;;;;1.18;66.77;100903.59;5168256;28;20062;-77
2022/04/02 06:01:37;;;;;;;0.30;0.30;;;;;;;1.19;67.79;100894.97;5172003;28;20057;-76
2022/04/02 06:04:09;;;;;;;0.47;0.47;;;;;;;1.12;67.31;100902.63;5172970;28;20034;-76
2022/04/02 06:06:40;;;;;;;0.30;0.30;;;;;;;1.10;67.46;100907.78;5173339;28;20052;-76
2022/04/02 06:09:11;;;;;;;0.30;0.30;;;;;;;1.19;67.32;100904.44;5168479;28;20033;-77
2022/04/02 06:11:41;;;;;;;0.50;0.50;;;;;;;1.10;67.59;100916.38;5164084;28;20136;-78
2022/04/02 06:14:13;;;;;;;0.40;0.40;;;;;;;1.15;66.59;100919.03;5174085;28;20040;-77
2022/04/02 06:16:44;;;;;;;0.30;0.30;;;;;;;1.17;67.43;100919.94;5175592;28;20108;-78
2022/04/02 06:19:17;;;;;;;0.30;0.30;;;;;;;1.23;67.28;100911.41;5172402;28;20042;-78
2022/04/02 06:21:48;;;;;;;0.30;0.30;;;;;;;1.17;66.71;100914.75;5170236;28;20418;-78
2022/04/02 06:24:18;;;;;;;1.88;1.77;;;;;;;1.19;66.85;100922.53;5174170;28;20073;-78
2022/04/02 06:26:49;;;;;;;0.40;0.40;;;;;;;1.16;66.86;100919.91;5195327;28;20401;-78
2022/04/02 06:29:19;;;;;;;0.40;0.40;;;;;;;1.19;66.33;100931.16;5172460;28;20041;-78
2022/04/02 06:31:51;;;;;;;0.30;0.30;;;;;;;1.31;66.32;100927.91;5153292;28;20504;-78
2022/04/02 06:34:22;;;;;;;2.05;0.93;;;;;;;1.34;66.71;100929.66;5172424;28;20046;-78
2022/04/02 06:36:54;;;;;;;0.30;0.30;;;;;;;1.27;66.39;100935.59;5157530;28;20146;-78
2022/04/02 06:39:24;;;;;;;0.40;0.40;;;;;;;1.21;66.23;100942.38;5152908;28;20408;-78
2022/04/02 06:41:57;;;;;;;0.30;0.30;;;;;;;1.31;66.47;100945.09;5168091;28;20034;-78
2022/04/02 06:44:29;;;;;;;0.30;0.30;;;;;;;1.40;65.74;100943.53;5163493;28;20077;-77
2022/04/02 06:47:00;;;;;;;0.47;0.47;;;;;;;1.32;65.72;100950.31;5165775;28;20580;-78
2022/04/02 06:49:30;;;;;;;0.52;0.52;;;;;;;1.44;65.49;100959.09;5156225;28;20049;-78
2022/04/02 06:52:03;;;;;;;0.43;0.43;;;;;;;1.27;65.33;100945.91;5188515;28;20277;-78
2022/04/02 06:54:33;;;;;;;0.30;0.30;;;;;;;1.26;65.93;100945.03;5173999;28;20038;-78
2022/04/02 06:57:06;;;;;;;0.40;0.40;;;;;;;1.18;65.74;100952.69;5175357;28;20038;-78
2022/04/02 06:59:37;;;;;;;0.30;0.30;;;;;;;1.23;66.27;100956.19;5173269;28;20041;-78
2022/04/02 07:02:10;;;;;;;0.38;0.38;;;;;;;1.39;65.67;100967.66;5170533;28;20057;-78
2022/04/02 07:04:43;;;;;;;0.30;0.30;;;;;;;1.32;65.47;100962.34;5178238;28;20120;-79
2022/04/02 07:07:17;;;;;;;0.40;0.40;;;;;;;1.37;65.29;100963.28;5178367;28;20037;-78
2022/04/02 07:09:47;;;;;;;0.30;0.30;;;;;;;1.35;65.35;100967.59;5170950;28;20446;-79
2022/04/02 07:12:18;;;;;;;0.35;0.35;;;;;;;1.48;65.40;100969.50;5176226;28;20056;-79
2022/04/02 07:14:48;;;;;;;0.40;0.40;;;;;;;1.39;65.37;100971.94;5156950;28;20747;-79
2022/04/02 07:17:19;;;;;;;1.05;1.05;;;;;;;1.39;65.30;100982.28;5160685;28;20317;-78
2022/04/02 07:19:50;;;;;;;0.25;0.25;;;;;;;1.50;65.50;100983.31;5180501;28;20247;-77
2022/04/02 07:22:23;;;;;;;0.30;0.30;;;;;;;1.51;65.29;100987.66;5199605;28;20048;-77
2022/04/02 07:24:56;;;;;;;0.40;0.40;;;;;;;1.53;65.01;100983.34;5171146;28;20144;-77
2022/04/02 07:27:29;;;;;;;1.20;1.20;;;;;;;1.60;64.97;100989.47;5188147;28;20486;-78
2022/04/02 07:29:59;;;;;;;0.52;0.52;;;;;;;1.57;65.43;100982.56;5172171;28;20045;-78
2022/04/02 07:32:30;;;;;;;0.30;0.30;;;;;;;1.62;64.50;100997.25;5172600;28;20376;-78
2022/04/02 07:35:00;;;;;;;0.40;0.40;;;;;;;1.60;64.19;100994.66;5170388;28;20128;-78
2022/04/02 07:37:57;;;;;;;0.20;0.20;;;;;;;1.68;64.24;101005.13;5174048;28;21337;-78
2022/04/02 07:40:40;;;;;;;0.50;0.50;;;;;;;1.65;64.81;101010.25;5169226;28;20038;-78
2022/04/02 07:43:25;;;;;;;0.30;0.30;;;;;;;1.67;63.89;101011.16;5172152;28;20034;-77
2022/04/02 07:46:04;;;;;;;0.20;0.20;;;;;;;1.72;64.00;101012.06;5190079;28;20392;-78
2022/04/02 07:48:37;;;;;;;0.30;0.30;;;;;;;1.81;64.34;101019.09;5177764;28;20079;-77
2022/04/02 07:51:15;;;;;;;;;;;;;;;1.85;63.73;101021.75;5174678;28;20037;-77
2022/04/02 07:53:51;;;;;;;0.30;0.30;;;;;;;1.70;62.97;101021.50;5152067;28;20504;-77
2022/04/02 07:56:28;;;;;;;0.30;0.30;;;;;;;1.75;63.59;101047.44;5160196;28;20061;-77
2022/04/02 07:59:09;;;;;;;0.20;0.20;;;;;;;1.69;62.03;101023.25;5178706;28;20037;-78
2022/04/02 08:01:42;;;;;;;0.30;0.30;;;;;;;1.97;63.69;101033.09;5174920;28;20041;-77
2022/04/02 08:04:12;;;;;;;0.30;0.30;;;;;;;1.95;63.02;101034.78;5169111;28;20544;-78
2022/04/02 08:06:43;;;;;;;0.30;0.30;;;;;;;2.02;63.43;101039.22;5173208;28;20052;-77
2022/04/02 08:09:14;;;;;;;0.20;0.20;;;;;;;2.03;62.82;101031.47;5172476;28;20036;-78
2022/04/02 08:11:48;;;;;;;2.22;0.98;;;;;;;1.95;62.54;101034.78;5171718;28;20038;-77
2022/04/02 08:14:23;;;;;;;0.20;0.20;;;;;;;1.85;62.68;101037.28;5176422;28;20038;-77
2022/04/02 08:16:54;;;;;;;0.30;0.30;;;;;;;2.02;62.96;101034.91;5155056;28;20360;-77
2022/04/02 08:19:26;;;;;;;0.30;0.30;;;;;;;2.09;62.00;101043.63;5193212;28;20287;-77
2022/04/02 08:21:57;;;;;;;0.55;0.55;;;;;;;2.01;62.44;101040.94;5172081;28;20503;-78
2022/04/02 08:24:27;;;;;;;0.40;0.40;;;;;;;2.08;62.47;101052.25;5158273;28;20073;-77
2022/04/02 08:27:13;;;;;;;0.80;0.80;;;;;;;2.17;62.40;101057.53;5169148;28;20453;-77
2022/04/02 08:30:06;;;;;;;0.30;0.30;;;;;;;2.23;62.20;101049.00;5183130;28;20060;-78
2022/04/02 08:32:55;;;;;;;0.57;0.57;;;;;;;2.20;61.96;101057.56;5181335;28;20434;-77
2022/04/02 08:35:34;;;;;;;0.20;0.20;;;;;;;2.25;61.18;101054.19;5168723;28;20738;-78
2022/04/02 08:38:13;;;;;;;0.40;0.40;;;;;;;2.26;61.43;101071.47;5192192;28;20033;-77
2022/04/02 08:41:02;;;;;;;0.30;0.30;;;;;;;2.29;61.73;101058.53;5151931;28;20215;-77
2022/04/02 08:43:51;;;;;;;0.25;0.25;;;;;;;2.28;62.38;101054.19;5177547;28;20332;-78
2022/04/02 08:46:49;;;;;;;0.45;0.45;;;;;;;2.48;62.37;101068.28;5195011;28;20053;-77
2022/04/02 08:49:32;;;;;;;0.25;0.25;;;;;;;2.35;61.25;101062.06;5177020;28;20060;-77
2022/04/02 08:52:15;;;;;;;0.20;0.20;;;;;;;2.52;61.28;101064.00;5176816;28;20411;-78
2022/04/02 08:54:48;;;;;;;0.40;0.40;;;;;;;2.50;61.07;101065.69;5169892;28;20326;-77
2022/04/02 08:57:42;;;;;;;0.30;0.30;;;;;;;2.54;60.26;101077.84;5186789;28;20277;-78
2022/04/02 09:00:14;;;;;;;0.30;0.30;;;;;;;2.53;60.30;101081.28;5149270;28;20042;-77
2022/04/02 09:02:53;;;;;;;1.48;1.05;;;;;;;2.52;60.01;101075.22;5167633;28;20054;-77
2022/04/02 09:05:49;;;;;;;0.55;0.55;;;;;;;2.46;61.15;101080.34;5157041;28;20046;-78
2022/04/02 09:09:04;;;;;;;0.55;0.55;;;;;;;2.66;60.52;101097.84;5177702;28;20077;-77
2022/04/02 09:11:59;;;;;;;0.30;0.30;;;;;;;2.65;60.49;101094.38;5116301;28;20091;-77
2022/04/02 09:14:49;;;;;;;0.50;0.50;;;;;;;2.58;59.26;101089.97;5192996;28;20038;-77
2022/04/02 09:17:35;;;;;;;0.30;0.30;;;;;;;2.74;59.97;101080.66;5169658;28;20038;-77
2022/04/02 09:20:46;;;;;;;1.10;1.05;;;;;;;2.81;59.51;101102.34;5172629;28;20045;-77
2022/04/02 09:23:53;;;;;;;0.20;0.20;;;;;;;2.74;60.49;101096.22;5170500;28;20041;-78
2022/04/02 09:26:52;;;;;;;0.20;0.20;;;;;;;2.98;61.08;101092.13;5199101;28;20042;-77
2022/04/02 09:29:36;;;;;;;0.30;0.30;;;;;;;3.02;60.00;101100.81;5157095;28;20041;-77
2022/04/02 09:32:44;;;;;;;0.30;0.30;;;;;;;2.90;58.84;101102.41;5159360;28;20049;-78
2022/04/02 09:35:40;;;;;;;0.30;0.30;;;;;;;2.94;59.17;101105.91;5170566;28;20092;-78
2022/04/02 09:38:32;;;;;;;0.60;0.60;;;;;;;3.08;59.63;101106.94;5193519;28;20057;-77
2022/04/02 09:41:38;;;;;;;0.30;0.30;;;;;;;2.95;58.32;101107.66;5181210;28;20093;-76
2022/04/02 09:44:30;;;;;;;0.40;0.40;;;;;;;3.17;59.06;101120.84;5157092;28;20065;-77
2022/04/02 09:47:05;;;;;;;0.30;0.30;;;;;;;3.11;57.69;101106.09;5156945;28;20501;-77
2022/04/02 09:49:45;;;;;;;0.30;0.30;;;;;;;3.10;58.84;101114.72;5176808;28;20420;-77
2022/04/02 09:52:21;;;;;;;0.30;0.30;;;;;;;3.10;57.99;101115.56;5175496;28;20042;-77
2022/04/02 09:55:11;;;;;;;0.40;0.40;;;;;;;3.20;57.99;101128.63;5153209;28;20038;-78
2022/04/02 09:57:45;;;;;;;0.22;0.22;;;;;;;3.22;57.86;101134.72;5192592;28;20050;-76
2022/04/02 10:00:20;;;;;;;7.22;2.60;;;;;;;3.33;58.20;101122.72;5171273;28;20137;-77
2022/04/02 10:03:00;;;;;;;0.77;0.77;;;;;;;3.36;58.03;101127.06;5184280;28;20676;-77
2022/04/02 10:05:42;;;;;;;0.30;0.30;;;;;;;3.38;58.57;101131.41;5170469;28;20425;-76
2022/04/02 10:08:38;;;;;;;0.80;0.80;;;;;;;3.30;57.81;101135.66;5171234;28;20123;-77
2022/04/02 10:11:09;;;;;;;0.30;0.30;;;;;;;3.36;57.90;101138.31;5170063;28;20115;-77
2022/04/02 10:13:40;;;;;;;0.43;0.43;;;;;;;3.42;57.63;101148.75;5168426;28;20033;-77
2022/04/02 10:16:14;;;;;;;0.90;0.90;;;;;;;3.29;56.73;101139.09;5162599;28;20046;-76
2022/04/02 10:18:47;;;;;;;0.30;0.30;;;;;;;3.17;56.87;101144.19;5177546;28;20501;-80
2022/04/02 10:21:19;;;;;;;0.98;0.98;;;;;;;3.31;57.42;101142.59;5139961;28;20501;-79
2022/04/02 10:23:57;;;;;;;0.30;0.30;;;;;;;3.38;58.25;101140.94;5170400;28;20037;-78
2022/04/02 10:26:37;;;;;;;0.40;0.40;;;;;;;3.24;56.42;101143.38;5189165;28;20064;-77
2022/04/02 10:29:12;;;;;;;0.30;0.30;;;;;;;3.45;56.39;101143.59;5187582;28;20442;-78
2022/04/02 10:31:57;;;;;;;0.20;0.20;;;;;;;3.35;57.23;101133.97;5190816;28;20042;-78
2022/04/02 10:34:41;;;;;;;0.30;0.30;;;;;;;3.46;56.24;101139.28;5153634;28;20308;-78
2022/04/02 10:37:14;;;;;;;0.30;0.30;;;;;;;3.52;56.78;101128.94;5150144;28;20733;-79
2022/04/02 10:40:02;;;;;;;0.63;0.63;;;;;;;3.50;55.93;101142.78;5172434;28;20494;-77
2022/04/02 10:42:37;;;;;;;0.30;0.30;;;;;;;3.65;56.32;101131.63;5192126;28;20075;-79
2022/04/02 10:45:11;;;;;;;0.30;0.30;;;;;;;3.86;54.48;101133.53;5177926;28;20372;-78
2022/04/02 10:47:54;;;;;;;0.57;0.57;;;;;;;3.85;53.60;101134.38;5197417;28;20053;-78
2022/04/02 10:50:25;;;;;;;0.30;0.30;;;;;;;3.65;53.09;101129.91;5178889;28;20439;-77
2022/04/02 10:53:00;;;;;;;0.43;0.43;;;;;;;3.67;53.77;101141.19;5177198;28;20052;-77
2022/04/02 10:55:30;;;;;;;0.35;0.35;;;;;;;3.72;53.00;101130.84;5170986;28;20037;-77
2022/04/02 10:58:02;;;;;;;0.40;0.40;;;;;;;3.84;53.96;101136.13;5158774;28;20663;-78
2022/04/02 11:00:38;;;;;;;0.40;0.40;;;;;;;3.77;52.76;101136.94;5161511;28;20129;-77
2022/04/02 11:03:19;;;;;;;0.50;0.50;;;;;;;3.90;54.78;101136.16;5174283;28;20250;-79
2022/04/02 11:05:52;;;;;;;0.40;0.40;;;;;;;4.00;54.99;101142.31;5179810;28;20287;-78
2022/04/02 11:08:29;;;;;;;0.40;0.40;;;;;;;4.02;55.90;101139.72;5164898;28;20520;-77
2022/04/02 11:11:29;;;;;;;0.30;0.30;;;;;;;4.08;54.71;101140.63;5176023;28;20049;-77
2022/04/02 11:14:03;;;;;;;0.95;0.95;;;;;;;4.07;55.77;101141.47;5164909;28;20049;-77
2022/04/02 11:16:40;;;;;;;0.52;0.52;;;;;;;4.13;55.44;101152.75;5194914;28;20439;-77
2022/04/02 11:22:08;;;;;;;0.30;0.30;;;;;;;3.99;58.07;101163.03;5174840;28;20133;-78
2022/04/02 11:25:01;;;;;;;0.82;0.82;;;;;;;4.03;57.99;101173.47;5178858;28;20085;-78
2022/04/02 11:27:37;;;;;;;0.90;0.90;;;;;;;4.09;58.43;101170.03;5170386;28;21305;-77
2022/04/02 11:30:10;;;;;;;0.50;0.50;;;;;;;4.06;58.48;101177.81;5152303;28;20446;-76
2022/04/02 11:32:43;;;;;;;0.65;0.65;;;;;;;4.02;58.43;101170.88;5143251;28;20061;-76
2022/04/02 11:35:16;;;;;;;0.50;0.50;;;;;;;4.08;58.27;101170.91;5169229;28;20503;-76
2022/04/02 11:38:18;;;;;;;1.35;1.20;;;;;;;4.02;58.71;101174.31;5164840;28;20038;-76
2022/04/02 11:40:54;;;;;;;0.30;0.30;;;;;;;3.88;58.24;101169.03;5190210;28;20045;-76
2022/04/02 11:43:33;;;;;;;0.30;0.30;;;;;;;3.70;58.50;101169.75;5188360;28;20028;-76
2022/04/02 11:46:09;;;;;;;0.32;0.32;;;;;;;4.17;58.13;101175.31;5170005;28;20046;-76
2022/04/02 11:48:59;;;;;;;0.30;0.30;;;;;;;4.15;60.57;101171.81;5176073;28;20136;-76
2022/04/02 11:51:33;;;;;;;0.30;0.30;;;;;;;4.22;60.72;101178.78;5189096;28;20048;-77
2022/04/02 11:54:08;;;;;;;0.50;0.50;;;;;;;4.34;60.90;101176.25;5184360;28;20639;-77
2022/04/02 11:56:43;;;;;;;0.30;0.30;;;;;;;4.45;61.27;101170.25;5177841;28;20123;-77
2022/04/02 11:59:16;;;;;;;0.40;0.40;;;;;;;4.36;63.24;101177.16;5164808;28;20425;-77
2022/04/02 12:01:51;;;;;;;0.40;0.40;;;;;;;4.49;61.83;101172.03;5199918;28;20089;-78
2022/04/02 12:04:22;;;;;;;0.55;0.55;;;;;;;4.63;60.12;101169.50;5190730;28;20042;-78
2022/04/02 12:07:06;;;;;;;0.50;0.50;;;;;;;4.48;59.60;101165.09;5205306;28;20046;-77
2022/04/02 12:09:48;;;;;;;;;;;;;;;4.46;59.11;101175.47;5165326;28;20041;-76
2022/04/02 12:12:23;;;;;;;0.40;0.40;;;;;;;4.30;60.87;101176.25;5173977;28;19963;-78
2022/04/02 12:14:58;;;;;;;0.77;0.77;;;;;;;4.56;61.17;101168.59;5186172;28;20030;-79
2022/04/02 12:17:32;;;;;;;0.40;0.40;;;;;;;4.68;60.86;101184.22;5146862;28;20041;-79